createdAt,value
2019-04-21T00:00:39.565Z,58.47
2019-04-21T00:01:42.006Z,58.26
2019-04-21T00:02:40.934Z,58.78
2019-04-21T00:03:47.742Z,58.67
2019-04-21T00:04:52.038Z,58.98
2019-04-21T00:05:58.873Z,59.08
2019-04-21T00:06:56.877Z,60.01
2019-04-21T00:08:05.034Z,60.63
2019-04-21T00:09:02.369Z,60.11
2019-04-21T00:09:59.934Z,60.11
2019-04-21T00:11:02.740Z,59.93
2019-04-21T00:11:55.375Z,60.03
2019-04-21T00:12:53.448Z,59.93
2019-04-21T00:13:52.750Z,59.73
2019-04-21T00:14:49.707Z,59.01
2019-04-21T00:15:44.437Z,58.70
2019-04-21T00:16:44.362Z,59.22
2019-04-21T00:17:39.076Z,59.52
2019-04-21T00:18:46.897Z,59.31
2019-04-21T00:19:39.536Z,59.73
2019-04-21T00:20:43.012Z,59.31
2019-04-21T00:21:44.951Z,59.34
2019-04-21T00:22:52.079Z,59.14
2019-04-21T00:23:59.088Z,59.14
2019-04-21T00:24:51.959Z,59.24
2019-04-21T00:25:49.888Z,58.93
2019-04-21T00:26:57.320Z,59.34
2019-04-21T00:27:51.698Z,59.34
2019-04-21T00:29:04.093Z,58.62
2019-04-21T00:30:01.822Z,59.24
2019-04-21T00:30:56.830Z,57.06
2019-04-21T00:31:51.398Z,58.50
2019-04-21T00:32:50.219Z,59.52
2019-04-21T00:33:41.074Z,60.03
2019-04-21T00:34:41.046Z,59.73
2019-04-21T00:35:45.306Z,60.03
2019-04-21T00:36:47.248Z,59.42
2019-04-21T00:38:13.674Z,59.65
2019-04-21T00:39:09.641Z,58.83
2019-04-21T00:40:02.153Z,60.68
2019-04-21T00:41:00.464Z,60.89
2019-04-21T00:42:00.859Z,61.19
2019-04-21T00:42:56.938Z,61.53
2019-04-21T00:43:49.099Z,61.53
2019-04-21T00:44:56.599Z,62.15
2019-04-21T00:45:50.873Z,62.87
2019-04-21T00:46:53.175Z,62.15
2019-04-21T00:47:57.673Z,62.15
2019-04-21T00:48:59.246Z,62.56
2019-04-21T00:50:02.270Z,63.18
2019-04-21T00:51:16.306Z,63.18
2019-04-21T00:52:14.432Z,63.00
2019-04-21T00:53:00.175Z,62.90
2019-04-21T00:54:06.910Z,63.42
2019-04-21T00:55:10.930Z,62.38
2019-04-21T00:56:05.779Z,62.59
2019-04-21T00:57:05.360Z,61.56
2019-04-21T00:58:05.306Z,61.98
2019-04-21T00:58:59.929Z,62.38
2019-04-21T00:59:59.734Z,62.28
2019-04-21T01:00:58.123Z,61.87
2019-04-21T01:01:55.556Z,62.90
2019-04-21T01:03:04.938Z,63.21
2019-04-21T01:04:04.842Z,62.79
2019-04-21T01:05:04.823Z,62.18
2019-04-21T01:06:01.812Z,62.59
2019-04-21T01:07:05.297Z,62.49
2019-04-21T01:07:57.815Z,62.62
2019-04-21T01:08:58.989Z,62.93
2019-04-21T01:09:48.901Z,63.65
2019-04-21T01:10:51.610Z,63.85
2019-04-21T01:12:02.667Z,64.27
2019-04-21T01:13:04.022Z,64.58
2019-04-21T01:14:01.026Z,65.09
2019-04-21T01:15:05.766Z,64.78
2019-04-21T01:16:00.821Z,65.09
2019-04-21T01:16:57.968Z,65.12
2019-04-21T01:17:59.505Z,65.74
2019-04-21T01:18:54.850Z,65.02
2019-04-21T01:19:55.968Z,65.22
2019-04-21T01:20:37.205Z,64.40
2019-04-21T01:21:36.195Z,64.09
2019-04-21T01:22:36.197Z,63.27
2019-04-21T01:23:36.195Z,63.68
2019-04-21T01:24:40.211Z,64.40
2019-04-21T01:25:44.370Z,64.50
2019-04-21T01:26:48.195Z,64.50
2019-04-21T01:27:53.845Z,64.71
2019-04-21T01:28:58.436Z,64.09
2019-04-21T01:29:59.794Z,64.61
2019-04-21T01:31:01.169Z,64.61
2019-04-21T01:32:03.627Z,64.09
2019-04-21T01:33:03.583Z,64.43
2019-04-21T01:33:59.242Z,64.32
2019-04-21T01:34:59.386Z,64.64
2019-04-21T01:35:53.724Z,64.53
2019-04-21T01:36:55.759Z,64.92
2019-04-21T01:37:56.035Z,64.02
2019-04-21T01:39:01.044Z,64.53
2019-04-21T01:40:04.038Z,64.43
2019-04-21T01:41:00.689Z,64.32
2019-04-21T01:41:59.698Z,64.02
2019-04-21T01:42:56.692Z,65.15
2019-04-21T01:43:56.977Z,65.36
2019-04-21T01:44:58.322Z,65.88
2019-04-21T01:45:53.977Z,65.77
2019-04-21T01:46:56.368Z,65.25
2019-04-21T01:47:56.052Z,65.36
2019-04-21T01:48:53.989Z,65.36
2019-04-21T01:49:47.183Z,64.67
2019-04-21T01:50:56.827Z,64.77
2019-04-21T01:52:10.877Z,65.25
2019-04-21T01:52:56.052Z,65.05
2019-04-21T01:54:05.151Z,64.98
2019-04-21T01:55:00.455Z,65.49
2019-04-21T01:56:03.103Z,65.80
2019-04-21T01:56:55.219Z,65.59
2019-04-21T01:57:54.075Z,65.49
2019-04-21T01:58:48.226Z,66.11
2019-04-21T01:59:50.252Z,65.91
2019-04-21T02:00:51.798Z,65.80
2019-04-21T02:02:00.341Z,65.08
2019-04-21T02:02:59.879Z,64.98
2019-04-21T02:03:57.081Z,64.87
2019-04-21T02:05:07.109Z,64.77
2019-04-21T02:06:09.502Z,64.98
2019-04-21T02:06:57.263Z,64.77
2019-04-21T02:07:59.129Z,64.36
2019-04-21T02:09:02.226Z,65.08
2019-04-21T02:10:00.869Z,64.87
2019-04-21T02:11:00.292Z,65.28
2019-04-21T02:12:01.290Z,65.49
2019-04-21T02:12:59.417Z,65.70
2019-04-21T02:14:07.404Z,65.39
2019-04-21T02:15:20.279Z,66.63
2019-04-21T02:16:03.788Z,66.42
2019-04-21T02:16:59.588Z,66.11
2019-04-21T02:17:59.548Z,66.31
2019-04-21T02:18:54.446Z,66.21
2019-04-21T02:19:51.444Z,66.11
2019-04-21T02:20:44.498Z,66.45
2019-04-21T02:21:49.268Z,66.76
2019-04-21T02:23:15.974Z,66.86
2019-04-21T02:23:58.744Z,66.86
2019-04-21T02:25:01.093Z,66.97
2019-04-21T02:25:57.438Z,66.66
2019-04-21T02:27:03.531Z,66.89
2019-04-21T02:27:57.524Z,67.30
2019-04-21T02:29:03.189Z,67.41
2019-04-21T02:30:05.309Z,67.72
2019-04-21T02:31:18.088Z,67.72
2019-04-21T02:33:16.841Z,68.03
2019-04-21T02:34:04.462Z,68.13
2019-04-21T02:40:08.427Z,68.03
2019-04-21T02:40:15.025Z,69.06
2019-04-21T02:41:23.104Z,68.75
2019-04-21T02:42:20.052Z,68.54
2019-04-21T02:44:12.421Z,68.16
2019-04-21T02:45:09.414Z,68.37
2019-04-21T02:46:54.363Z,67.75
2019-04-21T02:48:11.339Z,68.06
2019-04-21T02:49:13.159Z,67.85
2019-04-21T02:50:10.146Z,67.85
2019-04-21T02:52:16.521Z,67.96
2019-04-21T02:53:11.479Z,68.03
2019-04-21T02:55:08.187Z,68.03
2019-04-21T02:56:11.104Z,67.51
2019-04-21T02:57:09.286Z,67.10
2019-04-21T02:58:08.354Z,66.38
2019-04-21T02:59:06.861Z,67.30
2019-04-21T03:00:15.576Z,67.61
2019-04-21T03:01:14.528Z,68.03
2019-04-21T03:02:25.694Z,68.44
2019-04-21T03:03:09.360Z,67.85
2019-04-21T03:04:10.703Z,68.06
2019-04-21T03:05:15.718Z,68.58
2019-04-21T03:06:08.830Z,68.68
2019-04-21T03:08:03.640Z,68.99
2019-04-21T03:09:09.177Z,68.78
2019-04-21T03:10:30.694Z,69.09
2019-04-21T03:11:11.153Z,68.99
2019-04-21T03:13:19.443Z,68.68
2019-04-21T03:14:25.162Z,68.99
2019-04-21T03:15:25.178Z,68.78
2019-04-21T03:16:23.573Z,69.20
2019-04-21T03:17:09.347Z,68.88
2019-04-21T03:19:10.002Z,68.71
2019-04-21T03:20:15.066Z,68.61
2019-04-21T03:21:07.188Z,68.88
2019-04-21T03:22:13.671Z,68.71
2019-04-21T03:24:12.106Z,69.12
2019-04-21T03:26:12.072Z,68.51
2019-04-21T03:27:28.810Z,68.71
2019-04-21T03:28:11.233Z,68.71
2019-04-21T03:29:12.062Z,68.61
2019-04-21T03:32:32.671Z,69.23
2019-04-21T03:33:41.010Z,69.12
2019-04-21T03:37:07.711Z,68.82
2019-04-21T03:39:01.805Z,68.51
2019-04-21T03:40:08.899Z,69.12
2019-04-21T03:41:16.002Z,69.33
2019-04-21T03:43:04.482Z,69.12
2019-04-21T03:44:12.459Z,69.43
2019-04-21T03:46:28.558Z,68.71
2019-04-21T03:47:10.960Z,68.19
2019-04-21T03:48:11.418Z,69.02
2019-04-21T03:49:11.866Z,68.61
2019-04-21T03:51:04.848Z,69.12
2019-04-21T03:52:11.112Z,69.85
2019-04-21T03:54:09.257Z,70.37
2019-04-21T03:55:12.517Z,70.40
2019-04-21T03:56:01.289Z,70.29
2019-04-21T03:59:03.955Z,70.19
2019-04-21T04:00:16.096Z,70.09
2019-04-21T04:01:05.812Z,70.40
2019-04-21T04:02:08.236Z,70.29
2019-04-21T04:04:16.056Z,70.74
2019-04-21T04:05:15.395Z,71.15
2019-04-21T04:06:13.360Z,71.05
2019-04-21T04:08:18.560Z,71.36
2019-04-21T04:10:08.205Z,71.26
2019-04-21T04:11:12.383Z,70.95
2019-04-21T04:12:02.424Z,70.84
2019-04-21T04:13:05.550Z,71.15
2019-04-21T04:14:12.952Z,71.67
2019-04-21T04:15:01.006Z,71.78
2019-04-21T04:16:05.907Z,71.88
2019-04-21T04:17:11.812Z,71.98
2019-04-21T04:18:07.832Z,71.78
2019-04-21T04:20:03.939Z,71.26
2019-04-21T04:21:14.990Z,71.78
2019-04-21T04:22:15.114Z,71.15
2019-04-21T04:23:08.068Z,71.36
2019-04-21T04:24:04.356Z,71.57
2019-04-21T04:25:04.966Z,71.67
2019-04-21T04:26:09.075Z,71.57
2019-04-21T04:27:05.084Z,71.57
2019-04-21T04:28:08.550Z,72.08
2019-04-21T04:29:20.478Z,71.47
2019-04-21T04:31:22.266Z,71.47
2019-04-21T04:33:15.469Z,71.15
2019-04-21T04:34:12.588Z,71.02
2019-04-21T04:35:10.845Z,70.95
2019-04-21T04:36:15.463Z,71.33
2019-04-21T04:37:12.311Z,71.02
2019-04-21T04:39:23.033Z,71.53
2019-04-21T04:40:21.507Z,71.53
2019-04-21T04:41:34.978Z,71.74
2019-04-21T04:42:12.724Z,71.43
2019-04-21T04:43:11.864Z,71.33
2019-04-21T04:44:17.182Z,71.43
2019-04-21T04:46:07.144Z,71.53
2019-04-21T04:47:15.810Z,71.33
2019-04-21T04:48:07.418Z,71.84
2019-04-21T04:49:11.011Z,71.74
2019-04-21T04:50:22.667Z,71.43
2019-04-21T04:51:01.325Z,70.81
2019-04-21T04:54:03.834Z,70.92
2019-04-21T04:55:10.352Z,70.92
2019-04-21T04:56:08.181Z,71.02
2019-04-21T04:58:19.086Z,70.92
2019-04-21T04:59:23.263Z,71.53
2019-04-21T05:00:14.342Z,72.12
2019-04-21T05:01:18.498Z,71.71
2019-04-21T05:02:13.352Z,72.02
2019-04-21T05:03:01.293Z,72.12
2019-04-21T05:04:05.924Z,71.92
2019-04-21T05:06:10.400Z,72.22
2019-04-21T05:07:07.129Z,71.92
2019-04-21T05:08:14.943Z,71.61
2019-04-21T05:09:59.469Z,71.81
2019-04-21T05:11:23.018Z,71.81
2019-04-21T05:13:07.696Z,72.12
2019-04-21T05:14:06.258Z,71.78
2019-04-21T05:16:15.560Z,71.98
2019-04-21T05:17:02.260Z,71.88
2019-04-21T05:19:10.637Z,72.40
2019-04-21T05:20:08.870Z,72.40
2019-04-21T05:21:12.478Z,72.50
2019-04-21T05:22:08.217Z,72.47
2019-04-21T05:23:03.417Z,72.36
2019-04-21T05:24:08.104Z,72.36
2019-04-21T05:24:53.805Z,72.26
2019-04-21T05:25:51.139Z,71.95
2019-04-21T05:26:56.705Z,71.54
2019-04-21T05:27:52.594Z,71.44
2019-04-21T05:28:47.257Z,71.33
2019-04-21T05:30:04.125Z,71.92
2019-04-21T05:31:03.775Z,72.13
2019-04-21T05:31:56.622Z,71.81
2019-04-21T05:33:00.043Z,71.61
2019-04-21T05:33:59.053Z,71.61
2019-04-21T05:35:00.209Z,71.20
2019-04-21T05:35:55.692Z,71.89
2019-04-21T05:36:56.723Z,71.78
2019-04-21T05:37:55.200Z,71.99
2019-04-21T05:38:57.082Z,72.19
2019-04-21T05:39:52.400Z,71.68
2019-04-21T05:40:48.460Z,71.23
2019-04-21T05:41:42.959Z,70.82
2019-04-21T05:42:50.961Z,71.13
2019-04-21T05:44:01.525Z,71.13
2019-04-21T05:45:58.446Z,70.41
2019-04-21T05:47:11.495Z,69.96
2019-04-21T05:48:02.783Z,69.65
2019-04-21T05:48:52.568Z,69.14
2019-04-21T05:49:55.506Z,68.83
2019-04-21T05:50:57.278Z,68.32
2019-04-21T05:51:54.973Z,68.39
2019-04-21T05:52:50.365Z,68.08
2019-04-21T05:53:56.085Z,67.97
2019-04-21T05:55:00.856Z,68.18
2019-04-21T05:55:57.142Z,68.66
2019-04-21T05:56:56.505Z,68.46
2019-04-21T05:58:00.782Z,68.56
2019-04-21T05:58:57.980Z,68.35
2019-04-21T05:59:53.139Z,68.46
2019-04-21T06:02:09.322Z,66.99
2019-04-21T06:03:00.768Z,66.27
2019-04-21T06:03:57.115Z,66.67
2019-04-21T06:05:05.558Z,66.06
2019-04-21T06:07:05.787Z,63.67
2019-04-21T06:07:57.066Z,64.59
2019-04-21T06:08:53.884Z,64.56
2019-04-21T06:10:04.519Z,63.94
2019-04-21T06:11:14.828Z,64.56
2019-04-21T06:11:58.006Z,64.01
2019-04-21T06:12:59.613Z,63.81
2019-04-21T06:15:57.011Z,61.32
2019-04-21T06:17:01.686Z,59.57
2019-04-21T06:17:59.355Z,59.13
2019-04-21T06:18:58.755Z,59.95
2019-04-21T06:20:59.775Z,59.20
2019-04-21T06:21:51.260Z,60.33
2019-04-21T06:22:56.551Z,58.69
2019-04-21T06:23:57.594Z,57.84
2019-04-21T06:25:20.911Z,58.87
2019-04-21T06:26:08.358Z,57.64
2019-04-21T06:27:59.994Z,56.18
2019-04-21T06:29:08.559Z,56.38
2019-04-21T06:31:05.950Z,56.26
2019-04-21T06:32:26.906Z,56.46
2019-04-21T06:32:52.788Z,56.46
2019-04-21T06:33:58.545Z,55.54
2019-04-21T06:37:59.804Z,56.23
2019-04-21T06:39:08.691Z,56.20
2019-04-21T06:40:07.629Z,55.90
2019-04-21T06:40:56.440Z,55.58
2019-04-21T06:41:54.386Z,55.18
2019-04-21T06:43:07.470Z,54.23
2019-04-21T06:44:12.823Z,54.03
2019-04-21T06:45:03.101Z,53.92
2019-04-21T06:45:57.295Z,53.41
2019-04-21T06:46:49.062Z,54.21
2019-04-21T06:48:01.103Z,53.80
2019-04-21T06:48:59.494Z,53.59
2019-04-21T06:49:58.515Z,53.69
2019-04-21T06:51:00.590Z,54.08
2019-04-21T06:51:57.934Z,53.36
2019-04-21T06:52:53.875Z,53.16
2019-04-21T06:54:04.315Z,52.65
2019-04-21T06:55:06.430Z,52.83
2019-04-21T06:55:52.052Z,52.83
2019-04-21T06:56:51.511Z,52.01
2019-04-21T06:57:53.049Z,51.81
2019-04-21T06:58:55.478Z,51.19
2019-04-21T06:59:49.962Z,51.48
2019-04-21T07:00:53.555Z,51.17
2019-04-21T07:02:02.933Z,50.96
2019-04-21T07:03:02.993Z,50.66
2019-04-21T07:04:08.376Z,50.63
2019-04-21T07:06:03.447Z,51.15
2019-04-21T07:06:53.680Z,51.25
2019-04-21T07:08:13.095Z,50.33
2019-04-21T07:09:06.368Z,50.20
2019-04-21T07:09:57.086Z,50.51
2019-04-21T07:10:56.215Z,50.71
2019-04-21T07:11:55.006Z,50.81
2019-04-21T07:12:50.985Z,50.61
2019-04-21T07:14:05.684Z,50.38
2019-04-21T07:15:01.905Z,50.59
2019-04-21T07:16:00.498Z,50.38
2019-04-21T07:16:57.796Z,50.99
2019-04-21T07:18:02.598Z,51.38
2019-04-21T07:20:00.160Z,51.07
2019-04-21T07:20:53.168Z,51.07
2019-04-21T07:21:58.915Z,51.17
2019-04-21T07:22:54.182Z,50.64
2019-04-21T07:23:59.166Z,50.54
2019-04-21T07:24:56.000Z,50.54
2019-04-21T07:25:58.081Z,50.21
2019-04-21T07:26:57.106Z,50.52
2019-04-21T07:27:52.413Z,50.72
2019-04-21T07:29:01.837Z,50.82
2019-04-21T07:30:02.531Z,50.39
2019-04-21T07:31:00.603Z,50.29
2019-04-21T07:32:01.868Z,49.58
2019-04-21T07:33:08.973Z,49.68
2019-04-21T07:34:00.230Z,49.15
2019-04-21T07:34:57.576Z,49.86
2019-04-21T07:35:59.448Z,48.94
2019-04-21T07:36:54.573Z,49.25
2019-04-21T07:37:53.538Z,49.04
2019-04-21T07:38:49.775Z,48.72
2019-04-21T07:39:52.745Z,47.90
2019-04-21T07:40:45.798Z,47.80
2019-04-21T07:41:48.466Z,48.11
2019-04-21T07:42:55.107Z,48.31
2019-04-21T07:43:47.747Z,48.39
2019-04-21T07:44:51.177Z,49.00
2019-04-21T07:45:49.666Z,48.69
2019-04-21T07:46:45.317Z,47.58
2019-04-21T07:47:59.238Z,46.44
2019-04-21T07:48:58.252Z,46.23
2019-04-21T07:50:08.800Z,46.41
2019-04-21T07:50:58.042Z,45.09
2019-04-21T07:51:56.555Z,44.99
2019-04-21T07:53:02.078Z,44.08
2019-04-21T07:55:05.608Z,43.35
2019-04-21T07:55:35.794Z,43.85
2019-04-21T07:56:39.540Z,44.24
2019-04-21T07:57:47.877Z,44.13
2019-04-21T07:58:59.108Z,43.63
2019-04-21T08:00:05.906Z,43.63
2019-04-21T08:01:02.485Z,43.91
2019-04-21T08:01:58.920Z,43.20
2019-04-21T08:02:57.234Z,42.49
2019-04-21T08:03:55.395Z,42.78
2019-04-21T08:05:58.497Z,42.47
2019-04-21T08:06:51.995Z,43.18
2019-04-21T08:08:52.960Z,42.15
2019-04-21T08:09:54.654Z,42.46
2019-04-21T08:10:52.377Z,42.55
2019-04-21T08:11:48.708Z,42.54
2019-04-21T08:12:49.674Z,42.74
2019-04-21T08:13:51.787Z,42.54
2019-04-21T08:14:55.315Z,42.74
2019-04-21T08:15:52.832Z,42.63
2019-04-21T08:16:58.835Z,42.03
2019-04-21T08:17:55.823Z,42.13
2019-04-21T08:18:53.563Z,42.41
2019-04-21T08:19:48.665Z,42.31
2019-04-21T08:20:47.948Z,42.61
2019-04-21T08:21:57.628Z,42.82
2019-04-21T08:23:02.570Z,43.02
2019-04-21T08:23:46.705Z,41.99
2019-04-21T08:24:59.470Z,41.99
2019-04-21T08:26:03.778Z,42.19
2019-04-21T08:27:00.121Z,41.77
2019-04-21T08:27:55.541Z,41.66
2019-04-21T08:28:58.861Z,42.27
2019-04-21T08:29:51.892Z,42.27
2019-04-21T08:30:47.328Z,40.45
2019-04-21T08:32:07.825Z,41.04
2019-04-21T08:33:58.346Z,41.24
2019-04-21T08:35:07.401Z,40.53
2019-04-21T08:36:14.463Z,40.52
2019-04-21T08:36:51.445Z,40.92
2019-04-21T08:37:48.406Z,40.82
2019-04-21T08:38:54.571Z,41.12
2019-04-21T08:40:09.814Z,41.12
2019-04-21T08:40:55.919Z,40.70
2019-04-21T08:41:52.632Z,40.70
2019-04-21T08:42:52.146Z,40.30
2019-04-21T08:44:58.674Z,40.59
2019-04-21T08:45:52.755Z,40.37
2019-04-21T08:46:52.579Z,39.77
2019-04-21T08:47:56.178Z,39.97
2019-04-21T08:48:57.972Z,40.36
2019-04-21T08:49:53.841Z,39.55
2019-04-21T08:50:53.945Z,39.04
2019-04-21T08:51:56.636Z,39.04
2019-04-21T08:52:56.447Z,39.23
2019-04-21T08:53:53.650Z,39.13
2019-04-21T08:54:57.041Z,38.42
2019-04-21T08:56:00.900Z,38.52
2019-04-21T08:56:55.866Z,38.82
2019-04-21T08:58:03.909Z,39.13
2019-04-21T08:58:56.154Z,38.62
2019-04-21T08:59:50.705Z,39.11
2019-04-21T09:00:56.230Z,38.40
2019-04-21T09:01:57.220Z,38.40
2019-04-21T09:03:00.291Z,38.40
2019-04-21T09:03:53.655Z,38.91
2019-04-21T09:04:52.845Z,38.99
2019-04-21T09:05:55.310Z,38.79
2019-04-21T09:07:53.796Z,38.08
2019-04-21T09:08:51.983Z,37.98
2019-04-21T09:09:54.794Z,37.88
2019-04-21T09:10:53.786Z,38.17
2019-04-21T09:11:53.863Z,37.96
2019-04-21T09:12:51.827Z,38.37
2019-04-21T09:13:49.042Z,37.96
2019-04-21T09:14:51.265Z,38.07
2019-04-21T09:15:47.398Z,38.05
2019-04-21T09:16:47.488Z,38.05
2019-04-21T09:17:44.514Z,37.54
2019-04-21T09:18:47.268Z,37.85
2019-04-21T09:20:52.419Z,38.03
2019-04-21T09:21:51.510Z,35.31
2019-04-21T09:22:50.886Z,35.61
2019-04-21T09:23:50.956Z,35.61
2019-04-21T09:24:53.600Z,35.50
2019-04-21T09:25:53.003Z,36.00
2019-04-21T09:26:55.975Z,35.39
2019-04-21T09:27:47.009Z,35.50
2019-04-21T09:28:46.819Z,35.70
2019-04-21T09:29:40.632Z,35.58
2019-04-21T09:30:39.624Z,35.58
2019-04-21T09:31:36.585Z,35.18
2019-04-21T09:32:34.872Z,34.58
2019-04-21T09:33:37.655Z,34.27
2019-04-21T09:34:37.009Z,34.67
2019-04-21T09:35:31.900Z,34.26
2019-04-21T09:36:40.262Z,33.95
2019-04-21T09:37:41.808Z,34.36
2019-04-21T09:38:37.055Z,33.86
2019-04-21T09:39:33.370Z,34.16
2019-04-21T09:40:37.212Z,34.56
2019-04-21T09:41:34.803Z,34.54
2019-04-21T09:42:38.656Z,33.64
2019-04-21T09:43:40.057Z,34.04
2019-04-21T09:44:37.149Z,34.14
2019-04-21T09:45:32.936Z,33.52
2019-04-21T09:46:35.453Z,33.52
2019-04-21T09:47:41.750Z,33.83
2019-04-21T09:48:44.324Z,32.72
2019-04-21T09:49:35.050Z,33.12
2019-04-21T09:50:31.773Z,33.22
2019-04-21T09:51:30.712Z,33.22
2019-04-21T09:52:39.669Z,33.20
2019-04-21T09:53:36.443Z,33.61
2019-04-21T09:54:35.224Z,32.40
2019-04-21T09:55:41.934Z,31.80
2019-04-21T09:56:41.437Z,32.00
2019-04-21T09:57:41.510Z,32.59
2019-04-21T09:58:38.659Z,32.59
2019-04-21T09:59:37.124Z,32.39
2019-04-21T10:00:44.800Z,32.59
2019-04-21T10:01:44.935Z,32.29
2019-04-21T10:02:37.534Z,31.99
2019-04-21T10:03:38.276Z,32.29
2019-04-21T10:04:31.628Z,31.88
2019-04-21T10:05:31.698Z,31.79
2019-04-21T10:06:30.714Z,32.59
2019-04-21T10:07:35.510Z,32.29
2019-04-21T10:08:31.871Z,32.39
2019-04-21T10:09:31.067Z,32.57
2019-04-21T10:10:31.811Z,31.87
2019-04-21T10:11:31.134Z,31.17
2019-04-21T10:12:30.709Z,30.87
2019-04-21T10:13:31.840Z,31.37
2019-04-21T10:14:30.949Z,31.27
2019-04-21T10:15:30.573Z,31.26
2019-04-21T10:16:30.451Z,31.46
2019-04-21T10:17:30.439Z,30.85
2019-04-21T10:18:31.650Z,28.75
2019-04-21T10:19:31.590Z,29.55
2019-04-21T10:20:30.905Z,30.35
2019-04-21T10:21:31.599Z,30.35
2019-04-21T10:22:30.986Z,29.85
2019-04-21T10:23:31.603Z,28.44
2019-04-21T10:24:30.679Z,28.74
2019-04-21T10:25:30.677Z,28.84
2019-04-21T10:26:30.582Z,28.23
2019-04-21T10:27:31.414Z,28.94
2019-04-21T10:28:31.009Z,28.53
2019-04-21T10:29:32.999Z,28.64
2019-04-21T10:30:30.764Z,28.53
2019-04-21T10:31:30.268Z,29.14
2019-04-21T10:32:30.305Z,29.14
2019-04-21T10:33:30.369Z,29.94
2019-04-21T10:34:31.411Z,29.64
2019-04-21T10:35:31.047Z,29.74
2019-04-21T10:36:30.992Z,29.64
2019-04-21T10:37:43.898Z,29.74
2019-04-21T10:38:37.961Z,30.32
2019-04-21T10:39:31.604Z,30.12
2019-04-21T10:40:32.640Z,30.02
2019-04-21T10:41:30.164Z,29.93
2019-04-21T10:42:31.242Z,29.82
2019-04-21T10:43:31.255Z,29.43
2019-04-21T10:44:31.421Z,29.52
2019-04-21T10:45:30.908Z,29.02
2019-04-21T10:46:30.808Z,29.43
2019-04-21T10:47:31.255Z,29.22
2019-04-21T10:48:31.736Z,28.82
2019-04-21T10:49:30.783Z,28.94
2019-04-21T10:50:31.312Z,29.32
2019-04-21T10:51:30.893Z,28.92
2019-04-21T10:52:32.460Z,29.02
2019-04-21T10:53:31.101Z,29.43
2019-04-21T10:55:01.336Z,29.62
2019-04-21T10:55:44.812Z,28.82
2019-04-21T10:56:36.271Z,29.22
2019-04-21T10:57:30.997Z,29.22
2019-04-21T10:58:30.007Z,29.21
2019-04-21T10:59:31.079Z,28.91
2019-04-21T11:00:30.203Z,28.91
2019-04-21T11:01:31.359Z,28.81
2019-04-21T11:02:30.710Z,29.31
2019-04-21T11:03:31.040Z,29.11
2019-04-21T11:04:35.153Z,29.01
2019-04-21T11:05:30.921Z,28.31
2019-04-21T11:06:30.817Z,27.41
2019-04-21T11:07:33.477Z,27.50
2019-04-21T11:08:37.522Z,27.61
2019-04-21T11:09:31.850Z,28.39
2019-04-21T11:10:29.858Z,28.19
2019-04-21T11:11:30.240Z,28.00
2019-04-21T11:12:31.342Z,28.19
2019-04-21T11:13:38.722Z,27.89
2019-04-21T11:14:29.853Z,28.00
2019-04-21T11:15:29.796Z,27.09
2019-04-21T11:16:30.855Z,26.50
2019-04-21T11:17:30.219Z,27.29
2019-04-21T11:18:30.043Z,26.89
2019-04-21T11:19:30.702Z,26.40
2019-04-21T11:20:30.718Z,26.61
2019-04-21T11:21:31.034Z,27.09
2019-04-21T11:22:30.780Z,27.09
2019-04-21T11:23:31.128Z,26.79
2019-04-21T11:24:31.184Z,27.00
2019-04-21T11:25:30.476Z,26.79
2019-04-21T11:26:29.908Z,27.39
2019-04-21T11:27:30.944Z,27.21
2019-04-21T11:28:31.067Z,26.89
2019-04-21T11:29:30.885Z,27.20
2019-04-21T11:30:29.829Z,28.00
2019-04-21T11:31:29.637Z,26.70
2019-04-21T11:32:30.739Z,25.68
2019-04-21T11:33:29.628Z,26.18
2019-04-21T11:34:29.609Z,26.48
2019-04-21T11:35:30.815Z,25.98
2019-04-21T11:36:29.578Z,27.28
2019-04-21T11:37:30.497Z,26.58
2019-04-21T11:38:31.904Z,26.28
2019-04-21T11:39:39.246Z,26.48
2019-04-21T11:40:31.876Z,27.28
2019-04-21T11:41:29.856Z,27.19
2019-04-21T11:42:30.084Z,26.98
2019-04-21T11:43:30.699Z,26.18
2019-04-21T11:44:29.489Z,25.09
2019-04-21T11:45:30.566Z,25.38
2019-04-21T11:46:30.676Z,26.18
2019-04-21T11:47:30.348Z,26.78
2019-04-21T11:48:30.431Z,26.67
2019-04-21T11:49:32.015Z,27.27
2019-04-21T11:50:30.801Z,27.17
2019-04-21T11:51:29.437Z,27.27
2019-04-21T11:52:29.453Z,27.26
2019-04-21T11:53:30.660Z,27.26
2019-04-21T11:54:30.823Z,26.76
2019-04-21T11:55:35.245Z,26.86
2019-04-21T11:56:30.570Z,26.96
2019-04-21T11:57:34.988Z,26.65
2019-04-21T11:58:30.359Z,26.35
2019-04-21T11:59:29.941Z,26.67
2019-04-21T12:00:29.531Z,26.86
2019-04-21T12:01:29.753Z,26.96
2019-04-21T12:02:29.806Z,26.65
2019-04-21T12:03:29.581Z,26.86
2019-04-21T12:04:29.589Z,25.86
2019-04-21T12:05:29.810Z,26.76
2019-04-21T12:06:35.075Z,26.46
2019-04-21T12:07:31.250Z,25.96
2019-04-21T12:08:35.087Z,26.26
2019-04-21T12:09:30.289Z,26.35
2019-04-21T12:10:29.346Z,25.65
2019-04-21T12:11:29.478Z,25.55
2019-04-21T12:12:29.601Z,25.35
2019-04-21T12:13:30.035Z,25.45
2019-04-21T12:14:30.239Z,25.76
2019-04-21T12:15:29.249Z,26.16
2019-04-21T12:16:29.146Z,25.86
2019-04-21T12:17:30.019Z,24.16
2019-04-21T12:18:30.482Z,24.46
2019-04-21T12:19:30.471Z,24.26
2019-04-21T12:20:29.098Z,24.46
2019-04-21T12:21:39.027Z,24.77
2019-04-21T12:22:33.463Z,25.07
2019-04-21T12:23:30.213Z,25.37
2019-04-21T12:24:31.286Z,25.47
2019-04-21T12:25:29.236Z,23.76
2019-04-21T12:26:29.048Z,24.16
2019-04-21T12:27:29.931Z,24.45
2019-04-21T12:28:30.246Z,23.95
2019-04-21T12:29:30.532Z,24.05
2019-04-21T12:30:29.417Z,24.25
2019-04-21T12:31:29.788Z,24.45
2019-04-21T12:32:30.446Z,24.35
2019-04-21T12:33:29.864Z,24.45
2019-04-21T12:34:30.177Z,24.96
2019-04-21T12:35:30.107Z,25.35
2019-04-21T12:36:29.629Z,24.05
2019-04-21T12:37:29.017Z,24.15
2019-04-21T12:38:38.786Z,24.75
2019-04-21T12:39:30.523Z,24.65
2019-04-21T12:40:28.907Z,22.16
2019-04-21T12:41:28.885Z,23.15
2019-04-21T12:42:30.214Z,23.25
2019-04-21T12:43:28.882Z,23.45
2019-04-21T12:44:29.564Z,23.85
2019-04-21T12:45:28.874Z,24.15
2019-04-21T12:46:29.878Z,24.04
2019-04-21T12:47:30.013Z,24.04
2019-04-21T12:48:29.690Z,23.94
2019-04-21T12:49:29.712Z,24.33
2019-04-21T12:50:29.988Z,24.74
2019-04-21T12:51:30.083Z,24.54
2019-04-21T12:52:29.461Z,24.14
2019-04-21T12:53:29.758Z,23.74
2019-04-21T12:54:29.862Z,23.74
2019-04-21T12:55:31.601Z,24.14
2019-04-21T12:56:29.784Z,24.24
2019-04-21T12:57:31.347Z,24.44
2019-04-21T12:58:29.105Z,25.13
2019-04-21T12:59:30.789Z,23.34
2019-04-21T13:00:28.976Z,24.04
2019-04-21T13:01:28.663Z,24.44
2019-04-21T13:02:29.625Z,24.54
2019-04-21T13:03:30.028Z,24.24
2019-04-21T13:04:29.386Z,23.53
2019-04-21T13:05:29.620Z,22.93
2019-04-21T13:06:29.694Z,23.33
2019-04-21T13:07:28.658Z,23.83
2019-04-21T13:08:30.261Z,23.72
2019-04-21T13:09:31.785Z,24.02
2019-04-21T13:10:28.623Z,24.21
2019-04-21T13:11:28.888Z,24.21
2019-04-21T13:12:28.960Z,24.32
2019-04-21T13:13:28.581Z,24.32
2019-04-21T13:14:29.583Z,24.11
2019-04-21T13:15:29.346Z,24.02
2019-04-21T13:16:29.481Z,24.41
2019-04-21T13:17:28.489Z,24.51
2019-04-21T13:18:29.107Z,24.62
2019-04-21T13:19:29.364Z,24.81
2019-04-21T13:20:29.478Z,25.21
2019-04-21T13:21:29.814Z,24.80
2019-04-21T13:22:28.451Z,25.30
2019-04-21T13:23:29.162Z,25.00
2019-04-21T13:24:29.518Z,25.40
2019-04-21T13:25:29.672Z,25.50
2019-04-21T13:26:37.340Z,25.50
2019-04-21T13:27:30.815Z,25.70
2019-04-21T13:28:28.388Z,25.40
2019-04-21T13:29:28.360Z,25.10
2019-04-21T13:30:28.493Z,24.50
2019-04-21T13:31:28.338Z,24.70
2019-04-21T13:32:29.074Z,24.70
2019-04-21T13:33:29.233Z,24.90
2019-04-21T13:34:28.404Z,25.40
2019-04-21T13:35:28.883Z,25.20
2019-04-21T13:36:29.563Z,25.30
2019-04-21T13:37:29.674Z,25.40
2019-04-21T13:38:36.380Z,25.79
2019-04-21T13:40:09.950Z,25.90
2019-04-21T13:40:49.861Z,25.60
2019-04-21T13:41:41.300Z,25.19
2019-04-21T13:42:36.312Z,25.19
2019-04-21T13:43:30.719Z,25.19
2019-04-21T13:44:28.893Z,25.19
2019-04-21T13:45:28.179Z,24.99
2019-04-21T13:46:28.909Z,24.89
2019-04-21T13:47:28.353Z,24.59
2019-04-21T13:48:28.631Z,24.48
2019-04-21T13:49:29.495Z,24.29
2019-04-21T13:50:29.000Z,23.99
2019-04-21T13:51:29.206Z,24.39
2019-04-21T13:52:28.989Z,24.79
2019-04-21T13:53:28.590Z,24.69
2019-04-21T13:54:29.540Z,24.90